sensor_id;sensor_type;location;lat;lon;timestamp;temperature;humidity
63260;DHT22;49390;51.380;0.098;2023-12-29T00:01:46;10.00;99.90
63260;DHT22;49390;51.380;0.098;2023-12-29T00:04:14;10.00;99.90
63260;DHT22;49390;51.380;0.098;2023-12-29T00:06:42;10.00;99.90
63260;DHT22;49390;51.380;0.098;2023-12-29T00:09:23;10.00;99.90
63260;DHT22;49390;51.380;0.098;2023-12-29T00:11:52;10.00;99.90
63260;DHT22;49390;51.380;0.098;2023-12-29T00:14:19;10.00;99.90
63260;DHT22;49390;51.380;0.098;2023-12-29T00:16:48;10.00;99.90
63260;DHT22;49390;51.380;0.098;2023-12-29T00:19:15;10.00;99.90
63260;DHT22;49390;51.380;0.098;2023-12-29T00:21:43;10.00;99.90
63260;DHT22;49390;51.380;0.098;2023-12-29T00:24:11;10.00;99.90
63260;DHT22;49390;51.380;0.098;2023-12-29T00:26:39;10.00;99.90
63260;DHT22;49390;51.380;0.098;2023-12-29T00:29:07;10.00;99.90
63260;DHT22;49390;51.380;0.098;2023-12-29T00:31:35;10.00;99.90
63260;DHT22;49390;51.380;0.098;2023-12-29T00:34:03;10.00;99.90
63260;DHT22;49390;51.380;0.098;2023-12-29T00:36:31;10.10;99.90
63260;DHT22;49390;51.380;0.098;2023-12-29T00:38:58;10.00;99.90
63260;DHT22;49390;51.380;0.098;2023-12-29T00:41:26;10.00;99.90
63260;DHT22;49390;51.380;0.098;2023-12-29T00:43:54;9.90;99.90
63260;DHT22;49390;51.380;0.098;2023-12-29T00:46:22;10.00;99.90
63260;DHT22;49390;51.380;0.098;2023-12-29T00:48:50;9.90;99.90
63260;DHT22;49390;51.380;0.098;2023-12-29T00:51:18;9.90;99.90
63260;DHT22;49390;51.380;0.098;2023-12-29T00:53:46;9.90;99.90
63260;DHT22;49390;51.380;0.098;2023-12-29T00:56:14;9.90;99.90
63260;DHT22;49390;51.380;0.098;2023-12-29T00:58:41;9.90;99.90
63260;DHT22;49390;51.380;0.098;2023-12-29T01:01:09;9.90;99.90
63260;DHT22;49390;51.380;0.098;2023-12-29T01:03:39;9.80;99.90
63260;DHT22;49390;51.380;0.098;2023-12-29T01:06:07;9.90;99.90
63260;DHT22;49390;51.380;0.098;2023-12-29T01:08:36;9.80;99.90
63260;DHT22;49390;51.380;0.098;2023-12-29T01:11:04;9.80;99.90
63260;DHT22;49390;51.380;0.098;2023-12-29T01:13:31;9.80;99.90
63260;DHT22;49390;51.380;0.098;2023-12-29T01:15:59;9.80;99.90
63260;DHT22;49390;51.380;0.098;2023-12-29T01:18:29;9.80;99.90
63260;DHT22;49390;51.380;0.098;2023-12-29T01:20:57;9.80;99.90
63260;DHT22;49390;51.380;0.098;2023-12-29T01:23:24;9.80;99.90
63260;DHT22;49390;51.380;0.098;2023-12-29T01:25:52;9.80;99.90
63260;DHT22;49390;51.380;0.098;2023-12-29T01:28:20;9.80;99.90
63260;DHT22;49390;51.380;0.098;2023-12-29T01:30:48;9.80;99.90
63260;DHT22;49390;51.380;0.098;2023-12-29T01:33:16;9.80;99.90
63260;DHT22;49390;51.380;0.098;2023-12-29T01:35:44;9.80;99.90
63260;DHT22;49390;51.380;0.098;2023-12-29T01:38:12;9.80;99.90
63260;DHT22;49390;51.380;0.098;2023-12-29T01:40:47;9.90;99.90
63260;DHT22;49390;51.380;0.098;2023-12-29T01:43:14;9.80;99.90
63260;DHT22;49390;51.380;0.098;2023-12-29T01:45:43;9.80;99.90
63260;DHT22;49390;51.380;0.098;2023-12-29T01:48:13;9.90;99.90
63260;DHT22;49390;51.380;0.098;2023-12-29T01:50:42;9.80;99.90
63260;DHT22;49390;51.380;0.098;2023-12-29T01:53:10;9.90;99.90
63260;DHT22;49390;51.380;0.098;2023-12-29T01:55:39;9.90;99.90
63260;DHT22;49390;51.380;0.098;2023-12-29T01:58:07;9.90;99.90
63260;DHT22;49390;51.380;0.098;2023-12-29T02:00:35;9.90;99.90
63260;DHT22;49390;51.380;0.098;2023-12-29T02:03:03;9.90;99.90
63260;DHT22;49390;51.380;0.098;2023-12-29T02:05:33;9.90;99.90
63260;DHT22;49390;51.380;0.098;2023-12-29T02:08:02;9.90;99.90
63260;DHT22;49390;51.380;0.098;2023-12-29T02:10:32;9.90;99.90
63260;DHT22;49390;51.380;0.098;2023-12-29T02:13:00;9.90;99.90
63260;DHT22;49390;51.380;0.098;2023-12-29T02:15:28;9.90;99.90
63260;DHT22;49390;51.380;0.098;2023-12-29T02:18:06;9.90;99.90
63260;DHT22;49390;51.380;0.098;2023-12-29T02:20:35;9.90;99.90
63260;DHT22;49390;51.380;0.098;2023-12-29T02:25:27;9.90;99.90
63260;DHT22;49390;51.380;0.098;2023-12-29T02:28:00;9.90;99.90
63260;DHT22;49390;51.380;0.098;2023-12-29T02:30:38;9.90;99.90
63260;DHT22;49390;51.380;0.098;2023-12-29T02:33:10;9.90;99.90
63260;DHT22;49390;51.380;0.098;2023-12-29T02:35:43;9.90;99.90
63260;DHT22;49390;51.380;0.098;2023-12-29T02:38:11;9.90;99.90
63260;DHT22;49390;51.380;0.098;2023-12-29T02:40:40;10.00;99.90
63260;DHT22;49390;51.380;0.098;2023-12-29T02:43:09;10.00;99.90
63260;DHT22;49390;51.380;0.098;2023-12-29T02:45:37;10.00;99.90
63260;DHT22;49390;51.380;0.098;2023-12-29T02:48:06;9.90;99.90
63260;DHT22;49390;51.380;0.098;2023-12-29T02:50:33;9.90;99.90
63260;DHT22;49390;51.380;0.098;2023-12-29T02:53:02;9.90;99.90
63260;DHT22;49390;51.380;0.098;2023-12-29T02:55:31;9.90;99.90
63260;DHT22;49390;51.380;0.098;2023-12-29T02:57:59;9.90;99.90
63260;DHT22;49390;51.380;0.098;2023-12-29T03:00:28;9.90;99.90
63260;DHT22;49390;51.380;0.098;2023-12-29T03:02:56;9.90;99.90
63260;DHT22;49390;51.380;0.098;2023-12-29T03:05:25;9.90;99.90
63260;DHT22;49390;51.380;0.098;2023-12-29T03:07:53;9.90;99.90
63260;DHT22;49390;51.380;0.098;2023-12-29T03:10:21;9.90;99.90
63260;DHT22;49390;51.380;0.098;2023-12-29T03:12:48;9.90;99.90
63260;DHT22;49390;51.380;0.098;2023-12-29T03:15:16;9.90;99.90
63260;DHT22;49390;51.380;0.098;2023-12-29T03:17:44;9.90;99.90
63260;DHT22;49390;51.380;0.098;2023-12-29T03:20:12;9.90;99.90
63260;DHT22;49390;51.380;0.098;2023-12-29T03:22:41;9.80;99.90
63260;DHT22;49390;51.380;0.098;2023-12-29T03:25:09;9.90;99.90
63260;DHT22;49390;51.380;0.098;2023-12-29T03:27:37;9.80;99.90
63260;DHT22;49390;51.380;0.098;2023-12-29T03:30:05;9.80;99.90
63260;DHT22;49390;51.380;0.098;2023-12-29T03:32:33;9.90;99.90
63260;DHT22;49390;51.380;0.098;2023-12-29T03:35:01;9.90;99.90
63260;DHT22;49390;51.380;0.098;2023-12-29T03:37:29;9.80;99.90
63260;DHT22;49390;51.380;0.098;2023-12-29T03:39:57;9.90;99.90
63260;DHT22;49390;51.380;0.098;2023-12-29T03:42:25;9.90;99.90
63260;DHT22;49390;51.380;0.098;2023-12-29T03:44:53;9.90;99.90
63260;DHT22;49390;51.380;0.098;2023-12-29T03:47:22;10.00;99.90
63260;DHT22;49390;51.380;0.098;2023-12-29T03:49:50;10.00;99.90
63260;DHT22;49390;51.380;0.098;2023-12-29T03:52:18;10.00;99.90
63260;DHT22;49390;51.380;0.098;2023-12-29T03:54:46;10.00;99.90
63260;DHT22;49390;51.380;0.098;2023-12-29T03:57:14;10.00;99.90
63260;DHT22;49390;51.380;0.098;2023-12-29T03:59:41;10.00;99.90
63260;DHT22;49390;51.380;0.098;2023-12-29T04:02:10;10.00;99.90
63260;DHT22;49390;51.380;0.098;2023-12-29T04:04:38;10.10;99.90
63260;DHT22;49390;51.380;0.098;2023-12-29T04:07:07;10.10;99.90
63260;DHT22;49390;51.380;0.098;2023-12-29T04:09:35;10.10;99.90
63260;DHT22;49390;51.380;0.098;2023-12-29T04:12:03;10.20;99.90
63260;DHT22;49390;51.380;0.098;2023-12-29T04:14:31;10.20;99.90
63260;DHT22;49390;51.380;0.098;2023-12-29T04:16:59;10.30;99.90
63260;DHT22;49390;51.380;0.098;2023-12-29T04:19:30;10.30;99.90
63260;DHT22;49390;51.380;0.098;2023-12-29T04:21:58;10.30;99.90
63260;DHT22;49390;51.380;0.098;2023-12-29T04:24:26;10.30;99.90
63260;DHT22;49390;51.380;0.098;2023-12-29T04:26:54;10.20;99.90
63260;DHT22;49390;51.380;0.098;2023-12-29T04:31:42;10.30;99.90
63260;DHT22;49390;51.380;0.098;2023-12-29T04:34:10;10.30;99.90
63260;DHT22;49390;51.380;0.098;2023-12-29T04:36:37;10.50;99.90
63260;DHT22;49390;51.380;0.098;2023-12-29T04:39:05;10.40;99.90
63260;DHT22;49390;51.380;0.098;2023-12-29T04:41:33;10.40;99.90
63260;DHT22;49390;51.380;0.098;2023-12-29T04:44:01;10.40;99.90
63260;DHT22;49390;51.380;0.098;2023-12-29T04:46:28;10.40;99.90
63260;DHT22;49390;51.380;0.098;2023-12-29T04:48:56;10.40;99.90
63260;DHT22;49390;51.380;0.098;2023-12-29T04:51:24;10.50;99.90
63260;DHT22;49390;51.380;0.098;2023-12-29T04:53:52;10.40;99.90
63260;DHT22;49390;51.380;0.098;2023-12-29T04:56:19;10.40;99.90
63260;DHT22;49390;51.380;0.098;2023-12-29T04:58:48;10.50;99.90
63260;DHT22;49390;51.380;0.098;2023-12-29T05:01:16;10.50;99.90
63260;DHT22;49390;51.380;0.098;2023-12-29T05:03:44;10.50;99.90
63260;DHT22;49390;51.380;0.098;2023-12-29T05:06:12;10.60;99.90
63260;DHT22;49390;51.380;0.098;2023-12-29T05:08:40;10.60;99.90
63260;DHT22;49390;51.380;0.098;2023-12-29T05:11:08;10.60;99.90
63260;DHT22;49390;51.380;0.098;2023-12-29T05:13:35;10.60;99.90
63260;DHT22;49390;51.380;0.098;2023-12-29T05:16:03;10.60;99.90
63260;DHT22;49390;51.380;0.098;2023-12-29T05:18:32;10.60;99.90
63260;DHT22;49390;51.380;0.098;2023-12-29T05:21:00;10.60;99.90
63260;DHT22;49390;51.380;0.098;2023-12-29T05:23:27;10.60;99.90
63260;DHT22;49390;51.380;0.098;2023-12-29T05:25:55;10.60;99.90
63260;DHT22;49390;51.380;0.098;2023-12-29T05:28:23;10.70;99.90
63260;DHT22;49390;51.380;0.098;2023-12-29T05:30:50;10.60;99.90
63260;DHT22;49390;51.380;0.098;2023-12-29T05:33:18;10.60;99.90
63260;DHT22;49390;51.380;0.098;2023-12-29T05:35:46;10.70;99.90
63260;DHT22;49390;51.380;0.098;2023-12-29T05:38:14;10.70;99.90
63260;DHT22;49390;51.380;0.098;2023-12-29T05:40:42;10.70;99.90
63260;DHT22;49390;51.380;0.098;2023-12-29T05:43:10;10.60;99.90
63260;DHT22;49390;51.380;0.098;2023-12-29T05:45:38;10.60;99.90
63260;DHT22;49390;51.380;0.098;2023-12-29T05:48:06;10.70;99.90
63260;DHT22;49390;51.380;0.098;2023-12-29T05:50:34;10.70;99.90
63260;DHT22;49390;51.380;0.098;2023-12-29T05:53:01;10.70;99.90
63260;DHT22;49390;51.380;0.098;2023-12-29T05:55:29;10.70;99.90
63260;DHT22;49390;51.380;0.098;2023-12-29T05:57:57;10.70;99.90
63260;DHT22;49390;51.380;0.098;2023-12-29T06:00:25;10.70;99.90
63260;DHT22;49390;51.380;0.098;2023-12-29T06:02:53;10.70;99.90
63260;DHT22;49390;51.380;0.098;2023-12-29T06:05:21;10.70;99.90
63260;DHT22;49390;51.380;0.098;2023-12-29T06:07:49;10.70;99.90
63260;DHT22;49390;51.380;0.098;2023-12-29T06:10:16;10.70;99.90
63260;DHT22;49390;51.380;0.098;2023-12-29T06:12:44;10.70;99.90
63260;DHT22;49390;51.380;0.098;2023-12-29T06:15:12;10.80;99.90
63260;DHT22;49390;51.380;0.098;2023-12-29T06:17:44;10.80;99.90
63260;DHT22;49390;51.380;0.098;2023-12-29T06:20:11;10.70;99.90
63260;DHT22;49390;51.380;0.098;2023-12-29T06:22:40;10.70;99.90
63260;DHT22;49390;51.380;0.098;2023-12-29T06:25:09;10.60;99.90
63260;DHT22;49390;51.380;0.098;2023-12-29T06:27:39;10.60;99.90
63260;DHT22;49390;51.380;0.098;2023-12-29T06:30:08;10.50;99.90
63260;DHT22;49390;51.380;0.098;2023-12-29T06:32:38;10.50;99.90
63260;DHT22;49390;51.380;0.098;2023-12-29T06:35:08;10.50;99.90
63260;DHT22;49390;51.380;0.098;2023-12-29T06:37:38;10.40;99.90
63260;DHT22;49390;51.380;0.098;2023-12-29T06:40:09;10.40;99.90
63260;DHT22;49390;51.380;0.098;2023-12-29T06:42:37;10.40;99.90
63260;DHT22;49390;51.380;0.098;2023-12-29T06:45:05;10.30;99.90
63260;DHT22;49390;51.380;0.098;2023-12-29T06:47:36;10.30;99.90
63260;DHT22;49390;51.380;0.098;2023-12-29T06:50:04;10.20;99.90
63260;DHT22;49390;51.380;0.098;2023-12-29T06:52:32;10.20;99.90
63260;DHT22;49390;51.380;0.098;2023-12-29T06:55:01;10.20;99.90
63260;DHT22;49390;51.380;0.098;2023-12-29T06:57:31;10.20;99.90
63260;DHT22;49390;51.380;0.098;2023-12-29T06:59:58;10.20;99.90
63260;DHT22;49390;51.380;0.098;2023-12-29T07:02:26;10.10;99.90
63260;DHT22;49390;51.380;0.098;2023-12-29T07:04:54;10.10;99.90
63260;DHT22;49390;51.380;0.098;2023-12-29T07:07:22;10.10;99.90
63260;DHT22;49390;51.380;0.098;2023-12-29T07:09:50;10.10;99.90
63260;DHT22;49390;51.380;0.098;2023-12-29T07:12:18;10.10;99.90
63260;DHT22;49390;51.380;0.098;2023-12-29T07:14:45;10.10;99.90
63260;DHT22;49390;51.380;0.098;2023-12-29T07:17:13;10.10;99.90
63260;DHT22;49390;51.380;0.098;2023-12-29T07:19:41;10.10;99.90
63260;DHT22;49390;51.380;0.098;2023-12-29T07:22:10;10.20;99.90
63260;DHT22;49390;51.380;0.098;2023-12-29T07:24:37;10.20;99.90
63260;DHT22;49390;51.380;0.098;2023-12-29T07:27:06;10.20;99.90
63260;DHT22;49390;51.380;0.098;2023-12-29T07:29:34;10.20;99.90
63260;DHT22;49390;51.380;0.098;2023-12-29T07:32:02;10.30;99.90
63260;DHT22;49390;51.380;0.098;2023-12-29T07:34:30;10.30;99.90
63260;DHT22;49390;51.380;0.098;2023-12-29T07:36:59;10.30;99.90
63260;DHT22;49390;51.380;0.098;2023-12-29T07:39:27;10.30;99.90
63260;DHT22;49390;51.380;0.098;2023-12-29T07:41:55;10.30;99.90
63260;DHT22;49390;51.380;0.098;2023-12-29T07:44:26;10.30;99.90
63260;DHT22;49390;51.380;0.098;2023-12-29T07:46:57;10.30;99.90
63260;DHT22;49390;51.380;0.098;2023-12-29T07:49:25;10.30;99.90
63260;DHT22;49390;51.380;0.098;2023-12-29T07:51:53;10.30;99.90
63260;DHT22;49390;51.380;0.098;2023-12-29T07:54:21;10.30;99.90
63260;DHT22;49390;51.380;0.098;2023-12-29T07:56:49;10.30;99.90
63260;DHT22;49390;51.380;0.098;2023-12-29T07:59:18;10.40;99.90
63260;DHT22;49390;51.380;0.098;2023-12-29T08:01:46;10.30;99.90
63260;DHT22;49390;51.380;0.098;2023-12-29T08:04:13;10.30;99.90
63260;DHT22;49390;51.380;0.098;2023-12-29T08:06:42;10.40;99.90
63260;DHT22;49390;51.380;0.098;2023-12-29T08:09:10;10.30;99.90
63260;DHT22;49390;51.380;0.098;2023-12-29T08:11:38;10.20;99.90
63260;DHT22;49390;51.380;0.098;2023-12-29T08:14:06;10.30;99.90
63260;DHT22;49390;51.380;0.098;2023-12-29T08:16:39;10.20;99.90
63260;DHT22;49390;51.380;0.098;2023-12-29T08:19:10;10.20;99.90
63260;DHT22;49390;51.380;0.098;2023-12-29T08:21:38;10.10;99.90
63260;DHT22;49390;51.380;0.098;2023-12-29T08:24:06;10.10;99.90
63260;DHT22;49390;51.380;0.098;2023-12-29T08:26:34;10.10;99.90
63260;DHT22;49390;51.380;0.098;2023-12-29T08:29:09;10.00;99.90
63260;DHT22;49390;51.380;0.098;2023-12-29T08:31:37;10.00;99.90
63260;DHT22;49390;51.380;0.098;2023-12-29T08:34:05;10.10;99.90
63260;DHT22;49390;51.380;0.098;2023-12-29T08:36:33;10.00;99.90
63260;DHT22;49390;51.380;0.098;2023-12-29T08:39:01;10.00;99.90
63260;DHT22;49390;51.380;0.098;2023-12-29T08:41:29;9.90;99.90
63260;DHT22;49390;51.380;0.098;2023-12-29T08:43:57;9.90;99.90
63260;DHT22;49390;51.380;0.098;2023-12-29T08:46:24;9.90;99.90
63260;DHT22;49390;51.380;0.098;2023-12-29T08:48:52;9.90;99.90
63260;DHT22;49390;51.380;0.098;2023-12-29T08:51:20;9.90;99.90
63260;DHT22;49390;51.380;0.098;2023-12-29T08:53:48;9.90;99.90
63260;DHT22;49390;51.380;0.098;2023-12-29T08:56:16;9.80;99.90
63260;DHT22;49390;51.380;0.098;2023-12-29T08:58:44;9.90;99.90
63260;DHT22;49390;51.380;0.098;2023-12-29T09:01:12;9.80;99.90
63260;DHT22;49390;51.380;0.098;2023-12-29T09:03:39;9.80;99.90
63260;DHT22;49390;51.380;0.098;2023-12-29T09:06:08;9.80;99.90
63260;DHT22;49390;51.380;0.098;2023-12-29T09:08:36;9.80;99.90
63260;DHT22;49390;51.380;0.098;2023-12-29T09:11:04;9.90;99.90
63260;DHT22;49390;51.380;0.098;2023-12-29T09:13:32;9.90;99.90
63260;DHT22;49390;51.380;0.098;2023-12-29T09:16:00;9.90;99.90
63260;DHT22;49390;51.380;0.098;2023-12-29T09:18:27;9.90;99.90
63260;DHT22;49390;51.380;0.098;2023-12-29T09:20:55;10.00;99.90
63260;DHT22;49390;51.380;0.098;2023-12-29T09:23:23;9.90;99.90
63260;DHT22;49390;51.380;0.098;2023-12-29T09:25:51;10.10;99.90
63260;DHT22;49390;51.380;0.098;2023-12-29T09:28:19;10.10;99.90
63260;DHT22;49390;51.380;0.098;2023-12-29T09:30:47;10.10;99.90
63260;DHT22;49390;51.380;0.098;2023-12-29T09:33:15;10.10;99.90
63260;DHT22;49390;51.380;0.098;2023-12-29T09:35:42;10.20;99.90
63260;DHT22;49390;51.380;0.098;2023-12-29T09:38:10;10.20;99.90
63260;DHT22;49390;51.380;0.098;2023-12-29T09:40:38;10.30;99.90
63260;DHT22;49390;51.380;0.098;2023-12-29T09:43:06;10.30;99.90
63260;DHT22;49390;51.380;0.098;2023-12-29T09:45:37;10.30;99.90
63260;DHT22;49390;51.380;0.098;2023-12-29T09:48:07;10.40;99.90
63260;DHT22;49390;51.380;0.098;2023-12-29T09:50:36;10.40;99.90
63260;DHT22;49390;51.380;0.098;2023-12-29T09:53:04;10.50;99.90
63260;DHT22;49390;51.380;0.098;2023-12-29T09:55:34;10.50;99.90
63260;DHT22;49390;51.380;0.098;2023-12-29T09:58:02;10.50;99.90
63260;DHT22;49390;51.380;0.098;2023-12-29T10:00:31;10.60;99.90
63260;DHT22;49390;51.380;0.098;2023-12-29T10:03:00;10.60;99.90
63260;DHT22;49390;51.380;0.098;2023-12-29T10:05:28;10.60;99.90
63260;DHT22;49390;51.380;0.098;2023-12-29T10:07:56;10.70;99.90
63260;DHT22;49390;51.380;0.098;2023-12-29T10:10:28;10.70;99.90
63260;DHT22;49390;51.380;0.098;2023-12-29T10:12:56;10.90;99.90
63260;DHT22;49390;51.380;0.098;2023-12-29T10:18:21;10.90;99.90
63260;DHT22;49390;51.380;0.098;2023-12-29T10:21:08;11.00;99.90
63260;DHT22;49390;51.380;0.098;2023-12-29T10:26:34;11.10;99.90
63260;DHT22;49390;51.380;0.098;2023-12-29T10:29:04;11.10;99.90
63260;DHT22;49390;51.380;0.098;2023-12-29T10:31:31;11.10;99.90
63260;DHT22;49390;51.380;0.098;2023-12-29T10:34:20;11.20;99.90
63260;DHT22;49390;51.380;0.098;2023-12-29T10:36:56;11.10;99.90
63260;DHT22;49390;51.380;0.098;2023-12-29T10:39:25;11.20;99.90
63260;DHT22;49390;51.380;0.098;2023-12-29T10:42:07;11.20;99.90
63260;DHT22;49390;51.380;0.098;2023-12-29T10:44:36;11.20;99.90
63260;DHT22;49390;51.380;0.098;2023-12-29T10:47:11;11.20;99.90
63260;DHT22;49390;51.380;0.098;2023-12-29T10:49:40;11.20;99.90
63260;DHT22;49390;51.380;0.098;2023-12-29T10:52:13;11.10;99.90
63260;DHT22;49390;51.380;0.098;2023-12-29T10:54:43;11.10;99.90
63260;DHT22;49390;51.380;0.098;2023-12-29T10:57:11;11.10;99.90
63260;DHT22;49390;51.380;0.098;2023-12-29T10:59:40;11.10;99.90
63260;DHT22;49390;51.380;0.098;2023-12-29T11:02:11;11.10;99.90
63260;DHT22;49390;51.380;0.098;2023-12-29T11:04:43;11.10;99.90
63260;DHT22;49390;51.380;0.098;2023-12-29T11:07:12;11.10;99.90
63260;DHT22;49390;51.380;0.098;2023-12-29T11:09:41;11.20;99.90
63260;DHT22;49390;51.380;0.098;2023-12-29T11:12:09;11.20;99.90
63260;DHT22;49390;51.380;0.098;2023-12-29T11:14:37;11.20;99.90
63260;DHT22;49390;51.380;0.098;2023-12-29T11:17:06;11.30;99.90
63260;DHT22;49390;51.380;0.098;2023-12-29T11:19:34;11.30;99.90
63260;DHT22;49390;51.380;0.098;2023-12-29T11:22:04;11.30;99.90
63260;DHT22;49390;51.380;0.098;2023-12-29T11:24:32;11.30;99.90
63260;DHT22;49390;51.380;0.098;2023-12-29T11:27:08;11.30;99.90
63260;DHT22;49390;51.380;0.098;2023-12-29T11:29:41;11.30;99.90
63260;DHT22;49390;51.380;0.098;2023-12-29T11:32:18;11.40;99.90
63260;DHT22;49390;51.380;0.098;2023-12-29T11:35:02;11.40;99.90
63260;DHT22;49390;51.380;0.098;2023-12-29T11:37:47;11.50;99.90
63260;DHT22;49390;51.380;0.098;2023-12-29T11:40:20;11.70;99.90
63260;DHT22;49390;51.380;0.098;2023-12-29T11:42:52;11.70;99.90
63260;DHT22;49390;51.380;0.098;2023-12-29T11:45:31;11.70;99.90
63260;DHT22;49390;51.380;0.098;2023-12-29T11:48:04;11.80;99.90
63260;DHT22;49390;51.380;0.098;2023-12-29T11:50:36;11.90;99.90
63260;DHT22;49390;51.380;0.098;2023-12-29T11:53:07;11.90;99.90
63260;DHT22;49390;51.380;0.098;2023-12-29T11:55:37;11.80;99.90
63260;DHT22;49390;51.380;0.098;2023-12-29T11:58:24;11.80;99.90
63260;DHT22;49390;51.380;0.098;2023-12-29T12:00:53;11.80;99.90
63260;DHT22;49390;51.380;0.098;2023-12-29T12:03:31;11.70;99.90
63260;DHT22;49390;51.380;0.098;2023-12-29T12:06:01;11.70;99.90
63260;DHT22;49390;51.380;0.098;2023-12-29T12:08:34;11.60;99.90
63260;DHT22;49390;51.380;0.098;2023-12-29T12:13:56;11.60;99.90
63260;DHT22;49390;51.380;0.098;2023-12-29T12:19:11;11.60;99.90
63260;DHT22;49390;51.380;0.098;2023-12-29T12:21:40;11.60;99.90
63260;DHT22;49390;51.380;0.098;2023-12-29T12:24:08;11.60;99.90
63260;DHT22;49390;51.380;0.098;2023-12-29T12:26:36;11.70;99.90
63260;DHT22;49390;51.380;0.098;2023-12-29T12:29:05;11.70;99.90
63260;DHT22;49390;51.380;0.098;2023-12-29T12:31:34;11.90;99.90
63260;DHT22;49390;51.380;0.098;2023-12-29T12:34:02;11.90;99.90
63260;DHT22;49390;51.380;0.098;2023-12-29T12:36:51;11.90;99.90
63260;DHT22;49390;51.380;0.098;2023-12-29T12:39:19;12.10;99.90
63260;DHT22;49390;51.380;0.098;2023-12-29T12:41:47;12.20;99.90
63260;DHT22;49390;51.380;0.098;2023-12-29T12:44:15;12.20;99.90
63260;DHT22;49390;51.380;0.098;2023-12-29T12:46:56;12.20;99.90
63260;DHT22;49390;51.380;0.098;2023-12-29T12:49:25;12.30;99.90
63260;DHT22;49390;51.380;0.098;2023-12-29T12:51:53;12.30;99.90
63260;DHT22;49390;51.380;0.098;2023-12-29T12:54:21;12.20;99.90
63260;DHT22;49390;51.380;0.098;2023-12-29T12:56:50;12.30;99.90
63260;DHT22;49390;51.380;0.098;2023-12-29T12:59:18;12.20;99.90
63260;DHT22;49390;51.380;0.098;2023-12-29T13:04:13;12.30;98.80
63260;DHT22;49390;51.380;0.098;2023-12-29T13:06:42;12.20;98.60
63260;DHT22;49390;51.380;0.098;2023-12-29T13:09:17;12.20;98.50
63260;DHT22;49390;51.380;0.098;2023-12-29T13:11:47;12.20;98.20
63260;DHT22;49390;51.380;0.098;2023-12-29T13:14:24;12.20;97.90
63260;DHT22;49390;51.380;0.098;2023-12-29T13:16:53;12.00;97.80
63260;DHT22;49390;51.380;0.098;2023-12-29T13:19:22;12.00;97.90
63260;DHT22;49390;51.380;0.098;2023-12-29T13:21:53;11.90;97.60
63260;DHT22;49390;51.380;0.098;2023-12-29T13:24:23;11.90;97.50
63260;DHT22;49390;51.380;0.098;2023-12-29T13:27:01;11.90;97.40
63260;DHT22;49390;51.380;0.098;2023-12-29T13:29:30;11.90;97.20
63260;DHT22;49390;51.380;0.098;2023-12-29T13:32:20;11.90;96.90
63260;DHT22;49390;51.380;0.098;2023-12-29T13:35:09;11.90;96.20
63260;DHT22;49390;51.380;0.098;2023-12-29T13:40:42;11.90;95.00
63260;DHT22;49390;51.380;0.098;2023-12-29T13:43:14;11.90;94.50
63260;DHT22;49390;51.380;0.098;2023-12-29T13:45:43;11.90;94.40
63260;DHT22;49390;51.380;0.098;2023-12-29T13:48:13;11.90;93.70
63260;DHT22;49390;51.380;0.098;2023-12-29T13:50:46;11.90;93.30
63260;DHT22;49390;51.380;0.098;2023-12-29T13:53:21;11.90;93.20
63260;DHT22;49390;51.380;0.098;2023-12-29T13:55:50;11.90;93.30
63260;DHT22;49390;51.380;0.098;2023-12-29T13:58:18;11.80;92.90
63260;DHT22;49390;51.380;0.098;2023-12-29T14:00:53;11.70;92.80
63260;DHT22;49390;51.380;0.098;2023-12-29T14:03:30;11.80;92.80
63260;DHT22;49390;51.380;0.098;2023-12-29T14:06:04;11.70;92.90
63260;DHT22;49390;51.380;0.098;2023-12-29T14:08:45;11.70;93.00
63260;DHT22;49390;51.380;0.098;2023-12-29T14:11:13;11.70;93.10
63260;DHT22;49390;51.380;0.098;2023-12-29T14:13:42;11.70;93.10
63260;DHT22;49390;51.380;0.098;2023-12-29T14:16:11;11.70;93.10
63260;DHT22;49390;51.380;0.098;2023-12-29T14:21:31;11.70;93.10
63260;DHT22;49390;51.380;0.098;2023-12-29T14:24:00;11.70;93.10
63260;DHT22;49390;51.380;0.098;2023-12-29T14:26:28;11.70;93.10
63260;DHT22;49390;51.380;0.098;2023-12-29T14:29:11;11.60;93.10
63260;DHT22;49390;51.380;0.098;2023-12-29T14:31:41;11.60;93.00
63260;DHT22;49390;51.380;0.098;2023-12-29T14:34:10;11.60;93.20
63260;DHT22;49390;51.380;0.098;2023-12-29T14:36:40;11.50;93.20
63260;DHT22;49390;51.380;0.098;2023-12-29T14:39:09;11.50;93.30
63260;DHT22;49390;51.380;0.098;2023-12-29T14:41:38;11.60;93.50
63260;DHT22;49390;51.380;0.098;2023-12-29T14:44:06;11.50;93.60
63260;DHT22;49390;51.380;0.098;2023-12-29T14:46:35;11.50;93.70
63260;DHT22;49390;51.380;0.098;2023-12-29T14:49:06;11.50;93.90
63260;DHT22;49390;51.380;0.098;2023-12-29T14:51:35;11.50;94.00
63260;DHT22;49390;51.380;0.098;2023-12-29T14:54:03;11.50;94.10
63260;DHT22;49390;51.380;0.098;2023-12-29T14:56:31;11.50;94.20
63260;DHT22;49390;51.380;0.098;2023-12-29T14:58:59;11.50;94.30
63260;DHT22;49390;51.380;0.098;2023-12-29T15:01:27;11.50;94.20
63260;DHT22;49390;51.380;0.098;2023-12-29T15:03:55;11.40;94.30
63260;DHT22;49390;51.380;0.098;2023-12-29T15:06:23;11.40;94.20
63260;DHT22;49390;51.380;0.098;2023-12-29T15:08:51;11.30;94.30
63260;DHT22;49390;51.380;0.098;2023-12-29T15:11:19;11.30;94.40
63260;DHT22;49390;51.380;0.098;2023-12-29T15:13:49;11.30;94.50
63260;DHT22;49390;51.380;0.098;2023-12-29T15:16:18;11.20;94.70
63260;DHT22;49390;51.380;0.098;2023-12-29T15:18:46;11.20;94.80
63260;DHT22;49390;51.380;0.098;2023-12-29T15:21:14;11.20;94.90
63260;DHT22;49390;51.380;0.098;2023-12-29T15:23:42;11.20;95.10
63260;DHT22;49390;51.380;0.098;2023-12-29T15:26:10;11.10;95.20
63260;DHT22;49390;51.380;0.098;2023-12-29T15:28:41;11.00;95.40
63260;DHT22;49390;51.380;0.098;2023-12-29T15:31:11;11.00;95.70
63260;DHT22;49390;51.380;0.098;2023-12-29T15:33:41;10.90;95.70
63260;DHT22;49390;51.380;0.098;2023-12-29T15:36:12;10.90;95.70
63260;DHT22;49390;51.380;0.098;2023-12-29T15:38:41;11.00;95.80
63260;DHT22;49390;51.380;0.098;2023-12-29T15:41:09;10.90;95.90
63260;DHT22;49390;51.380;0.098;2023-12-29T15:43:37;10.90;95.90
63260;DHT22;49390;51.380;0.098;2023-12-29T15:46:14;10.80;96.00
63260;DHT22;49390;51.380;0.098;2023-12-29T15:48:43;10.80;96.00
63260;DHT22;49390;51.380;0.098;2023-12-29T15:51:11;10.80;96.10
63260;DHT22;49390;51.380;0.098;2023-12-29T15:53:40;10.80;96.20
63260;DHT22;49390;51.380;0.098;2023-12-29T15:56:15;10.80;96.10
63260;DHT22;49390;51.380;0.098;2023-12-29T15:58:43;10.80;95.60
63260;DHT22;49390;51.380;0.098;2023-12-29T16:01:11;10.80;95.50
63260;DHT22;49390;51.380;0.098;2023-12-29T16:03:38;10.70;95.10
63260;DHT22;49390;51.380;0.098;2023-12-29T16:06:06;10.70;95.10
63260;DHT22;49390;51.380;0.098;2023-12-29T16:08:34;10.80;94.90
63260;DHT22;49390;51.380;0.098;2023-12-29T16:11:02;10.80;94.90
63260;DHT22;49390;51.380;0.098;2023-12-29T16:13:29;10.70;94.80